createdAt,value
2018-10-11T00:00:31.619Z,12.08
2018-10-11T00:01:31.766Z,12.06
2018-10-11T00:02:31.918Z,12.02
2018-10-11T00:03:32.064Z,12.11
2018-10-11T00:04:32.220Z,11.96
2018-10-11T00:05:32.369Z,11.80
2018-10-11T00:06:32.519Z,11.83
2018-10-11T00:07:32.669Z,11.74
2018-10-11T00:08:32.819Z,11.72
2018-10-11T00:09:32.967Z,11.80
2018-10-11T00:10:33.119Z,11.74
2018-10-11T00:11:33.268Z,11.70
2018-10-11T00:12:33.414Z,11.74
2018-10-11T00:13:33.564Z,11.75
2018-10-11T00:14:33.714Z,11.71
2018-10-11T00:15:33.863Z,11.77
2018-10-11T00:16:34.013Z,11.71
2018-10-11T00:17:34.167Z,11.75
2018-10-11T00:18:34.309Z,11.75
2018-10-11T00:19:34.467Z,11.57
2018-10-11T00:20:34.616Z,11.62
2018-10-11T00:21:34.765Z,11.54
2018-10-11T00:22:34.915Z,11.53
2018-10-11T00:23:35.065Z,11.47
2018-10-11T00:24:35.217Z,11.43
2018-10-11T00:25:35.372Z,11.47
2018-10-11T00:26:35.516Z,11.52
2018-10-11T00:27:35.668Z,11.46
2018-10-11T00:28:35.817Z,11.50
2018-10-11T00:29:35.967Z,11.61
2018-10-11T00:30:36.128Z,11.57
2018-10-11T00:31:36.267Z,11.61
2018-10-11T00:32:36.415Z,11.61
2018-10-11T00:33:36.570Z,11.65
2018-10-11T00:34:36.745Z,11.68
2018-10-11T00:35:36.866Z,11.67
2018-10-11T00:36:37.013Z,11.54
2018-10-11T00:37:37.163Z,11.52
2018-10-11T00:38:37.313Z,11.52
2018-10-11T00:39:37.460Z,11.43
2018-10-11T00:40:37.609Z,11.44
2018-10-11T00:41:37.759Z,11.39
2018-10-11T00:42:37.909Z,11.38
2018-10-11T00:43:38.058Z,11.39
2018-10-11T00:44:38.207Z,11.36
2018-10-11T00:45:38.358Z,11.49
2018-10-11T00:46:38.510Z,11.52
2018-10-11T00:47:38.661Z,11.47
2018-10-11T00:48:38.808Z,11.38
2018-10-11T00:49:38.964Z,11.36
2018-10-11T00:50:39.109Z,11.27
2018-10-11T00:51:39.259Z,11.24
2018-10-11T00:52:39.410Z,11.24
2018-10-11T00:53:39.560Z,11.25
2018-10-11T00:54:39.707Z,11.17
2018-10-11T00:55:39.856Z,11.25
2018-10-11T00:56:40.008Z,11.25
2018-10-11T00:57:40.157Z,11.28
2018-10-11T00:58:40.307Z,11.29
2018-10-11T00:59:40.458Z,11.21
2018-10-11T01:00:40.605Z,11.32
2018-10-11T01:01:40.756Z,11.32
2018-10-11T01:02:40.906Z,11.20
2018-10-11T01:03:41.059Z,11.35
2018-10-11T01:04:41.203Z,11.38
2018-10-11T01:05:41.354Z,11.29
2018-10-11T01:06:41.502Z,11.25
2018-10-11T01:07:41.653Z,11.27
2018-10-11T01:08:41.802Z,11.21
2018-10-11T01:09:41.952Z,11.31
2018-10-11T01:10:42.102Z,11.34
2018-10-11T01:11:42.251Z,11.35
2018-10-11T01:12:42.400Z,11.38
2018-10-11T01:13:42.548Z,11.38
2018-10-11T01:14:42.698Z,11.35
2018-10-11T01:15:42.851Z,11.38
2018-10-11T01:16:43.001Z,11.49
2018-10-11T01:17:43.146Z,11.52
2018-10-11T01:18:43.300Z,11.46
2018-10-11T01:19:43.446Z,11.47
2018-10-11T01:20:43.595Z,11.50
2018-10-11T01:21:43.751Z,11.47
2018-10-11T01:22:43.897Z,11.59
2018-10-11T01:23:44.073Z,11.57
2018-10-11T01:24:44.198Z,11.49
2018-10-11T01:25:44.345Z,11.56
2018-10-11T01:26:44.492Z,11.61
2018-10-11T01:27:44.641Z,11.68
2018-10-11T01:28:44.792Z,11.72
2018-10-11T01:29:45.056Z,11.64
2018-10-11T01:30:45.091Z,11.52
2018-10-11T01:31:45.242Z,11.54
2018-10-11T01:32:45.391Z,11.54
2018-10-11T01:33:45.542Z,11.41
2018-10-11T01:34:45.691Z,11.25
2018-10-11T01:35:45.838Z,11.24
2018-10-11T01:36:45.989Z,11.24
2018-10-11T01:37:46.138Z,11.34
2018-10-11T01:38:46.293Z,11.27
2018-10-11T01:39:46.438Z,11.24
2018-10-11T01:40:46.588Z,11.25
2018-10-11T01:41:46.737Z,11.19
2018-10-11T01:42:46.887Z,11.14
2018-10-11T01:43:47.035Z,11.25
2018-10-11T01:44:47.186Z,11.21
2018-10-11T01:45:47.335Z,11.11
2018-10-11T01:46:47.481Z,11.01
2018-10-11T01:47:47.632Z,11.02
2018-10-11T01:48:47.784Z,11.19
2018-10-11T01:49:47.931Z,11.03
2018-10-11T01:50:48.083Z,10.96
2018-10-11T01:51:48.228Z,10.96
2018-10-11T01:52:48.378Z,10.89
2018-10-11T01:53:48.528Z,10.91
2018-10-11T01:54:48.677Z,10.81
2018-10-11T01:55:48.829Z,10.71
2018-10-11T01:56:49.067Z,10.80
2018-10-11T01:57:49.124Z,10.78
2018-10-11T01:58:49.273Z,10.76
2018-10-11T01:59:49.424Z,10.68
2018-10-11T02:00:49.574Z,10.84
2018-10-11T02:01:49.724Z,10.81
2018-10-11T02:02:49.872Z,10.84
2018-10-11T02:03:50.020Z,10.73
2018-10-11T02:04:50.170Z,10.89
2018-10-11T02:05:50.327Z,10.91
2018-10-11T02:06:50.469Z,10.89
2018-10-11T02:07:50.620Z,10.91
2018-10-11T02:08:50.768Z,10.92
2018-10-11T02:09:50.921Z,10.99
2018-10-11T02:10:51.068Z,10.91
2018-10-11T02:11:51.216Z,10.98
2018-10-11T02:12:51.367Z,10.98
2018-10-11T02:13:51.516Z,10.96
2018-10-11T02:14:51.663Z,11.02
2018-10-11T02:15:51.814Z,11.01
2018-10-11T02:16:51.962Z,11.01
2018-10-11T02:17:52.116Z,11.10
2018-10-11T02:18:52.265Z,11.11
2018-10-11T02:19:52.414Z,11.09
2018-10-11T02:20:52.562Z,11.06
2018-10-11T02:21:52.711Z,11.14
2018-10-11T02:22:52.859Z,11.11
2018-10-11T02:23:53.011Z,11.02
2018-10-11T02:24:53.163Z,11.03
2018-10-11T02:25:53.310Z,11.10
2018-10-11T02:26:53.460Z,11.02
2018-10-11T02:27:53.610Z,11.02
2018-10-11T02:28:53.758Z,11.03
2018-10-11T02:29:53.908Z,11.02
2018-10-11T02:30:54.061Z,10.89
2018-10-11T02:31:54.257Z,10.71
2018-10-11T02:32:54.362Z,10.66
2018-10-11T02:33:54.507Z,10.52
2018-10-11T02:34:54.657Z,10.44
2018-10-11T02:35:54.806Z,10.53
2018-10-11T02:36:54.966Z,10.56
2018-10-11T02:37:55.124Z,10.65
2018-10-11T02:38:55.256Z,10.55
2018-10-11T02:39:55.405Z,10.56
2018-10-11T02:40:55.553Z,10.58
2018-10-11T02:41:55.704Z,10.58
2018-10-11T02:42:55.857Z,10.71
2018-10-11T02:43:56.004Z,10.68
2018-10-11T02:44:56.155Z,10.71
2018-10-11T02:45:56.302Z,10.60
2018-10-11T02:46:56.453Z,10.77
2018-10-11T02:47:56.602Z,10.62
2018-10-11T02:48:56.755Z,10.70
2018-10-11T02:49:56.900Z,10.71
2018-10-11T02:50:57.050Z,10.55
2018-10-11T02:51:57.199Z,10.70
2018-10-11T02:52:57.349Z,10.63
2018-10-11T02:53:57.496Z,10.65
2018-10-11T02:54:57.650Z,10.56
2018-10-11T02:55:57.807Z,10.68
2018-10-11T02:56:57.949Z,10.58
2018-10-11T02:57:58.096Z,10.62
2018-10-11T02:58:58.246Z,10.68
2018-10-11T02:59:58.395Z,10.66
2018-10-11T03:00:58.545Z,10.65
2018-10-11T03:01:58.698Z,10.65
2018-10-11T03:02:58.846Z,10.55
2018-10-11T03:03:58.997Z,10.62
2018-10-11T03:04:59.140Z,10.63
2018-10-11T03:05:59.287Z,10.60
2018-10-11T03:06:59.437Z,10.59
2018-10-11T03:07:59.586Z,10.55
2018-10-11T03:08:59.742Z,10.58
2018-10-11T03:09:59.888Z,10.55
2018-10-11T03:11:00.038Z,10.52
2018-10-11T03:12:00.185Z,10.51
2018-10-11T03:13:00.332Z,10.60
2018-10-11T03:14:00.487Z,10.53
2018-10-11T03:15:00.638Z,10.43
2018-10-11T03:16:00.783Z,10.51
2018-10-11T03:17:00.938Z,10.42
2018-10-11T03:18:01.084Z,10.43
2018-10-11T03:19:01.241Z,10.42
2018-10-11T03:20:01.383Z,10.59
2018-10-11T03:21:01.546Z,10.53
2018-10-11T03:22:01.680Z,10.51
2018-10-11T03:23:01.832Z,10.43
2018-10-11T03:24:01.979Z,10.43
2018-10-11T03:25:02.131Z,10.44
2018-10-11T03:26:02.283Z,10.39
2018-10-11T03:27:02.428Z,10.40
2018-10-11T03:28:02.577Z,10.40
2018-10-11T03:29:02.727Z,10.34
2018-10-11T03:30:02.875Z,10.40
2018-10-11T03:31:03.028Z,10.33
2018-10-11T03:32:03.178Z,10.28
2018-10-11T03:33:03.328Z,10.28
2018-10-11T03:34:03.477Z,10.24
2018-10-11T03:35:03.626Z,10.12
2018-10-11T03:36:03.776Z,10.09
2018-10-11T03:37:03.927Z,10.17
2018-10-11T03:38:04.076Z,10.01
2018-10-11T03:39:04.226Z,10.10
2018-10-11T03:40:04.377Z,10.01
2018-10-11T03:41:04.527Z,10.07
2018-10-11T03:42:04.677Z,10.01
2018-10-11T03:43:04.825Z,9.96
2018-10-11T03:44:04.975Z,9.94
2018-10-11T03:45:05.123Z,9.94
2018-10-11T03:46:05.275Z,9.96
2018-10-11T03:47:05.425Z,10.04
2018-10-11T03:48:05.573Z,9.96
2018-10-11T03:49:05.725Z,9.88
2018-10-11T03:50:05.873Z,9.91
2018-10-11T03:51:06.021Z,9.96
2018-10-11T03:52:06.172Z,9.88
2018-10-11T03:53:06.325Z,9.88
2018-10-11T03:54:06.472Z,9.85
2018-10-11T03:55:06.627Z,9.94
2018-10-11T03:56:06.776Z,9.75
2018-10-11T03:57:06.960Z,9.93
2018-10-11T03:58:07.108Z,9.83
2018-10-11T03:59:07.259Z,9.89
2018-10-11T04:00:07.408Z,9.86
2018-10-11T04:01:07.557Z,9.93
2018-10-11T04:02:07.706Z,9.88
2018-10-11T04:03:07.855Z,9.93
2018-10-11T04:04:08.010Z,9.83
2018-10-11T04:05:08.158Z,9.82
2018-10-11T04:06:08.306Z,9.86
2018-10-11T04:07:08.453Z,9.76
2018-10-11T04:08:08.603Z,9.73
2018-10-11T04:09:08.755Z,9.86
2018-10-11T04:10:08.905Z,9.83
2018-10-11T04:11:09.052Z,9.93
2018-10-11T04:12:09.202Z,9.93
2018-10-11T04:13:09.354Z,9.96
2018-10-11T04:14:09.501Z,9.96
2018-10-11T04:15:09.651Z,9.96
2018-10-11T04:16:09.802Z,9.93
2018-10-11T04:17:09.948Z,9.94
2018-10-11T04:18:10.098Z,9.96
2018-10-11T04:19:10.248Z,9.96
2018-10-11T04:20:10.397Z,10.00
2018-10-11T04:21:10.547Z,9.91
2018-10-11T04:22:10.700Z,9.97
2018-10-11T04:23:10.848Z,9.88
2018-10-11T04:24:10.999Z,10.00
2018-10-11T04:25:11.147Z,10.00
2018-10-11T04:26:11.297Z,10.04
2018-10-11T04:27:11.452Z,10.07
2018-10-11T04:28:11.597Z,9.88
2018-10-11T04:29:11.747Z,9.86
2018-10-11T04:30:11.948Z,9.88
2018-10-11T04:31:12.048Z,9.83
2018-10-11T04:32:12.198Z,9.85
2018-10-11T04:33:12.345Z,9.83
2018-10-11T04:34:12.496Z,9.79
2018-10-11T04:35:12.645Z,9.76
2018-10-11T04:36:12.814Z,9.71
2018-10-11T04:37:12.945Z,9.71
2018-10-11T04:38:13.097Z,9.70
2018-10-11T04:39:13.248Z,9.68
2018-10-11T04:40:13.398Z,9.66
2018-10-11T04:41:13.545Z,9.68
2018-10-11T04:42:13.698Z,9.64
2018-10-11T04:43:14.031Z,9.60
2018-10-11T04:44:13.991Z,9.68
2018-10-11T04:45:14.143Z,9.68
2018-10-11T04:46:14.292Z,9.60
2018-10-11T04:47:14.441Z,9.66
2018-10-11T04:48:14.589Z,9.60
2018-10-11T04:49:14.739Z,9.76
2018-10-11T04:50:14.888Z,9.82
2018-10-11T04:51:15.037Z,9.73
2018-10-11T04:52:15.186Z,9.83
2018-10-11T04:53:15.336Z,9.79
2018-10-11T04:54:15.490Z,9.79
2018-10-11T04:55:15.637Z,9.85
2018-10-11T04:56:15.787Z,9.85
2018-10-11T04:57:15.938Z,9.83
2018-10-11T04:58:16.088Z,9.86
2018-10-11T04:59:16.239Z,9.85
2018-10-11T05:00:16.384Z,9.83
2018-10-11T05:01:16.537Z,9.85
2018-10-11T05:02:16.681Z,9.91
2018-10-11T05:03:16.826Z,9.93
2018-10-11T05:04:16.979Z,9.88
2018-10-11T05:05:17.140Z,9.88
2018-10-11T05:06:17.275Z,9.76
2018-10-11T05:07:17.424Z,9.78
2018-10-11T05:08:17.582Z,9.70
2018-10-11T05:09:17.731Z,9.86
2018-10-11T05:10:17.878Z,9.78
2018-10-11T05:11:18.028Z,9.88
2018-10-11T05:12:18.178Z,9.76
2018-10-11T05:13:18.327Z,9.96
2018-10-11T05:14:18.475Z,9.78
2018-10-11T05:15:18.622Z,9.91
2018-10-11T05:16:18.773Z,9.71
2018-10-11T05:17:18.962Z,9.75
2018-10-11T05:18:19.071Z,9.70
2018-10-11T05:19:19.227Z,9.81
2018-10-11T05:20:19.372Z,9.68
2018-10-11T05:21:19.562Z,9.67
2018-10-11T05:22:19.673Z,9.68
2018-10-11T05:23:19.822Z,9.70
2018-10-11T05:24:19.975Z,9.71
2018-10-11T05:25:20.121Z,9.78
2018-10-11T05:26:20.271Z,9.73
2018-10-11T05:27:20.420Z,9.68
2018-10-11T05:28:20.568Z,9.71
2018-10-11T05:29:20.717Z,9.68
2018-10-11T05:30:20.868Z,9.73
2018-10-11T05:31:21.017Z,9.71
2018-10-11T05:32:21.234Z,9.58
2018-10-11T05:33:21.314Z,9.50
2018-10-11T05:34:21.463Z,9.50
2018-10-11T05:35:21.611Z,9.53
2018-10-11T05:36:21.764Z,9.53
2018-10-11T05:37:21.912Z,9.56
2018-10-11T05:38:22.060Z,9.61
2018-10-11T05:39:22.209Z,9.57
2018-10-11T05:40:22.359Z,9.42
2018-10-11T05:41:22.508Z,9.39
2018-10-11T05:42:22.657Z,9.46
2018-10-11T05:43:22.805Z,9.42
2018-10-11T05:44:22.976Z,9.48
2018-10-11T05:45:23.104Z,9.35
2018-10-11T05:46:23.256Z,9.46
2018-10-11T05:47:23.406Z,9.48
2018-10-11T05:48:23.553Z,9.35
2018-10-11T05:49:23.703Z,9.32
2018-10-11T05:50:23.915Z,9.38
2018-10-11T05:51:24.004Z,9.20
2018-10-11T05:52:24.152Z,9.23
2018-10-11T05:53:24.301Z,9.27
2018-10-11T05:54:24.451Z,9.27
2018-10-11T05:55:24.596Z,9.24
2018-10-11T05:56:24.748Z,9.27
2018-10-11T05:57:24.896Z,9.23
2018-10-11T05:58:25.044Z,9.39
2018-10-11T05:59:25.217Z,9.23
2018-10-11T06:00:25.343Z,9.38
2018-10-11T06:01:25.492Z,9.32
2018-10-11T06:02:25.640Z,9.31
2018-10-11T06:03:25.792Z,9.24
2018-10-11T06:04:25.941Z,9.25
2018-10-11T06:05:26.094Z,9.28
2018-10-11T06:06:26.241Z,9.10
2018-10-11T06:07:26.390Z,9.23
2018-10-11T06:08:26.537Z,9.23
2018-10-11T06:09:26.687Z,9.27
2018-10-11T06:10:26.836Z,9.21
2018-10-11T06:11:26.992Z,9.27
2018-10-11T06:12:27.136Z,9.21
2018-10-11T06:13:27.285Z,9.27
2018-10-11T06:14:27.435Z,9.24
2018-10-11T06:15:27.586Z,9.24
2018-10-11T06:16:27.732Z,9.21
2018-10-11T06:17:27.881Z,9.31
2018-10-11T06:18:28.032Z,9.24
2018-10-11T06:19:28.181Z,9.40
2018-10-11T06:20:28.328Z,9.49
2018-10-11T06:21:28.478Z,9.43
2018-10-11T06:22:28.626Z,9.46
2018-10-11T06:23:28.781Z,9.50
2018-10-11T06:24:28.925Z,9.48
2018-10-11T06:25:29.074Z,9.49
2018-10-11T06:26:29.223Z,9.49
2018-10-11T06:27:29.375Z,9.56
2018-10-11T06:28:29.520Z,9.45
2018-10-11T06:29:29.668Z,9.39
2018-10-11T06:30:29.818Z,9.43
2018-10-11T06:31:29.968Z,9.39
2018-10-11T06:32:30.116Z,9.45
2018-10-11T06:33:30.269Z,9.42
2018-10-11T06:34:30.417Z,9.23
2018-10-11T06:35:30.566Z,9.30
2018-10-11T06:36:30.745Z,9.27
2018-10-11T06:37:30.867Z,9.27
2018-10-11T06:38:31.015Z,9.20
2018-10-11T06:39:31.165Z,9.24
2018-10-11T06:40:31.312Z,9.32
2018-10-11T06:41:31.463Z,9.24
2018-10-11T06:42:31.722Z,9.24
2018-10-11T06:43:31.763Z,9.23
2018-10-11T06:44:31.915Z,9.23
2018-10-11T06:45:32.067Z,9.23
2018-10-11T06:46:32.209Z,9.28
2018-10-11T06:47:32.367Z,9.28
2018-10-11T06:48:32.510Z,9.30
2018-10-11T06:49:32.657Z,9.35
2018-10-11T06:50:32.809Z,9.18
2018-10-11T06:51:32.962Z,9.15
2018-10-11T06:52:33.107Z,9.09
2018-10-11T06:53:33.261Z,9.16
2018-10-11T06:54:33.403Z,9.09
2018-10-11T06:55:33.560Z,9.09
2018-10-11T06:56:33.705Z,9.12
2018-10-11T06:57:33.855Z,9.12
2018-10-11T06:58:34.006Z,9.25
2018-10-11T06:59:34.155Z,9.30
2018-10-11T07:00:34.304Z,9.25
2018-10-11T07:01:34.508Z,9.20
2018-10-11T07:02:34.605Z,9.13
2018-10-11T07:03:34.755Z,9.06
2018-10-11T07:04:34.902Z,9.06
2018-10-11T07:05:35.053Z,9.27
2018-10-11T07:06:35.201Z,9.18
2018-10-11T07:07:35.352Z,9.21
2018-10-11T07:08:35.501Z,9.21
2018-10-11T07:09:35.651Z,9.18
2018-10-11T07:10:35.801Z,9.13
2018-10-11T07:11:35.949Z,9.25
2018-10-11T07:12:36.102Z,9.18
2018-10-11T07:13:36.252Z,9.09
2018-10-11T07:14:36.401Z,9.24
2018-10-11T07:15:36.549Z,9.23
2018-10-11T07:16:36.701Z,9.28
2018-10-11T07:17:36.864Z,9.28
2018-10-11T07:18:37.022Z,9.38
2018-10-11T07:19:37.159Z,9.38
2018-10-11T07:20:37.300Z,9.40
2018-10-11T07:21:37.450Z,9.43
2018-10-11T07:22:37.602Z,9.49
2018-10-11T07:23:37.751Z,9.63
2018-10-11T07:24:37.901Z,9.70
2018-10-11T07:25:38.051Z,9.78
2018-10-11T07:26:38.201Z,9.88
2018-10-11T07:27:38.355Z,9.83
2018-10-11T07:28:38.500Z,9.88
2018-10-11T07:29:38.650Z,9.88
2018-10-11T07:30:38.799Z,9.97
2018-10-11T07:31:38.949Z,10.03
2018-10-11T07:32:39.097Z,10.12
2018-10-11T07:33:39.246Z,10.10
2018-10-11T07:34:39.483Z,10.24
2018-10-11T07:35:39.548Z,10.30
2018-10-11T07:36:39.698Z,10.34
2018-10-11T07:37:39.849Z,10.43
2018-10-11T07:38:39.996Z,10.46
2018-10-11T07:39:40.146Z,10.59
2018-10-11T07:40:40.388Z,10.62
2018-10-11T07:41:40.447Z,10.53
2018-10-11T07:42:40.596Z,10.62
2018-10-11T07:43:40.745Z,10.74
2018-10-11T07:44:40.900Z,10.59
2018-10-11T07:45:41.125Z,10.73
2018-10-11T07:46:41.203Z,10.78
2018-10-11T07:47:41.351Z,10.66
2018-10-11T07:48:41.502Z,10.78
2018-10-11T07:49:41.655Z,10.88
2018-10-11T07:50:41.803Z,10.99
2018-10-11T07:51:41.953Z,11.06
2018-10-11T07:52:42.152Z,11.16
2018-10-11T07:53:42.254Z,11.13
2018-10-11T07:54:42.403Z,11.20
2018-10-11T07:55:42.553Z,11.35
2018-10-11T07:56:42.704Z,11.39
2018-10-11T07:57:42.851Z,11.46
2018-10-11T07:58:43.011Z,11.49
2018-10-11T07:59:43.155Z,11.59
2018-10-11T08:00:43.306Z,11.67
2018-10-11T08:01:43.511Z,11.82
2018-10-11T08:02:43.606Z,11.94
2018-10-11T08:03:43.759Z,12.01
2018-10-11T08:04:43.912Z,12.05
2018-10-11T08:05:44.060Z,12.05
2018-10-11T08:06:44.208Z,12.27
2018-10-11T08:07:44.370Z,12.30
2018-10-11T08:08:44.511Z,12.45
2018-10-11T08:09:44.663Z,12.41
2018-10-11T08:10:44.828Z,12.57
2018-10-11T08:11:45.151Z,12.64
2018-10-11T08:12:45.117Z,12.64
2018-10-11T08:13:45.269Z,12.70
2018-10-11T08:14:45.433Z,12.75
2018-10-11T08:15:45.570Z,12.82
2018-10-11T08:16:45.851Z,12.97
2018-10-11T08:17:46.219Z,12.99
2018-10-11T08:18:46.054Z,13.17
2018-10-11T08:19:46.248Z,13.18
2018-10-11T08:20:46.331Z,13.25
2018-10-11T08:21:46.551Z,13.30
2018-10-11T08:22:46.631Z,13.40
2018-10-11T08:23:46.786Z,13.54
2018-10-11T08:24:47.064Z,13.58
2018-10-11T08:25:47.479Z,13.62
2018-10-11T08:26:47.292Z,13.67
2018-10-11T08:27:47.391Z,13.70
2018-10-11T08:28:47.540Z,13.83
2018-10-11T08:29:47.690Z,13.95
2018-10-11T08:30:47.842Z,14.07
2018-10-11T08:31:48.058Z,14.19
2018-10-11T08:32:48.147Z,14.29
2018-10-11T08:33:48.297Z,14.31
2018-10-11T08:34:48.453Z,14.34
2018-10-11T08:35:48.599Z,14.49
2018-10-11T08:36:48.749Z,14.38
2018-10-11T08:37:48.956Z,14.39
2018-10-11T08:38:49.057Z,14.47
2018-10-11T08:39:49.209Z,14.44
2018-10-11T08:40:49.362Z,14.38
2018-10-11T08:41:49.510Z,14.47
2018-10-11T08:42:49.663Z,14.43
2018-10-11T08:43:49.823Z,14.56
2018-10-11T08:44:49.976Z,14.62
2018-10-11T08:45:50.119Z,14.83
2018-10-11T08:46:50.268Z,14.84
2018-10-11T08:47:50.423Z,14.86
2018-10-11T08:48:50.571Z,14.80
2018-10-11T08:49:50.728Z,14.75
2018-10-11T08:50:50.898Z,14.86
2018-10-11T08:51:51.032Z,14.81
2018-10-11T08:52:51.181Z,14.88
2018-10-11T08:53:51.335Z,14.88
2018-10-11T08:54:51.528Z,15.03
2018-10-11T08:55:51.695Z,15.09
2018-10-11T08:56:51.796Z,15.28
2018-10-11T08:57:51.949Z,15.20
2018-10-11T08:58:52.100Z,15.13
2018-10-11T08:59:52.253Z,15.28
2018-10-11T09:00:52.403Z,15.33
2018-10-11T09:01:52.556Z,15.41
2018-10-11T09:02:52.711Z,15.57
2018-10-11T09:03:53.089Z,15.51
2018-10-11T09:04:53.015Z,15.63
2018-10-11T09:05:53.167Z,15.61
2018-10-11T09:06:53.319Z,15.74
2018-10-11T09:07:53.472Z,15.79
2018-10-11T09:08:53.626Z,15.86
2018-10-11T09:09:53.915Z,15.89
2018-10-11T09:10:53.952Z,15.84
2018-10-11T09:11:54.085Z,15.89
2018-10-11T09:12:54.239Z,16.11
2018-10-11T09:13:54.391Z,16.00
2018-10-11T09:14:54.543Z,15.88
2018-10-11T09:15:54.698Z,15.97
2018-10-11T09:16:54.850Z,16.06
2018-10-11T09:17:55.004Z,16.20
2018-10-11T09:18:55.157Z,16.41
2018-10-11T09:19:55.315Z,16.44
2018-10-11T09:20:55.465Z,16.48
2018-10-11T09:21:55.618Z,16.50
2018-10-11T09:22:55.770Z,16.58
2018-10-11T09:23:55.924Z,16.56
2018-10-11T09:24:56.076Z,16.75
2018-10-11T09:25:56.227Z,16.92
2018-10-11T09:26:56.382Z,16.90
2018-10-11T09:27:56.533Z,16.93
2018-10-11T09:28:56.689Z,16.89
2018-10-11T09:29:56.841Z,16.96
2018-10-11T09:30:56.996Z,17.13
2018-10-11T09:31:57.149Z,17.22
2018-10-11T09:32:57.301Z,17.36
2018-10-11T09:33:57.456Z,17.46
2018-10-11T09:34:57.610Z,17.54
2018-10-11T09:35:57.765Z,17.54
2018-10-11T09:36:57.919Z,17.71
2018-10-11T09:37:58.070Z,17.81
2018-10-11T09:38:58.226Z,17.79
2018-10-11T09:39:58.379Z,17.76
2018-10-11T09:40:58.531Z,17.91
2018-10-11T09:41:58.685Z,17.74
2018-10-11T09:42:58.845Z,17.91
2018-10-11T09:43:58.992Z,17.76
2018-10-11T09:44:59.147Z,17.84
2018-10-11T09:45:59.301Z,17.91
2018-10-11T09:46:59.455Z,17.97
2018-10-11T09:47:59.608Z,18.03
2018-10-11T09:48:59.768Z,17.92
2018-10-11T09:49:59.922Z,17.97
2018-10-11T09:51:00.077Z,17.89
2018-10-11T09:52:00.231Z,17.97
2018-10-11T09:53:00.384Z,17.97
2018-10-11T09:54:00.545Z,18.04
2018-10-11T09:55:00.702Z,18.10
2018-10-11T09:56:01.315Z,18.24
2018-10-11T09:57:01.001Z,18.13
2018-10-11T09:58:01.160Z,18.27
2018-10-11T09:59:01.312Z,18.37
2018-10-11T10:00:01.468Z,18.55
2018-10-11T10:01:01.622Z,18.68
2018-10-11T10:02:01.828Z,18.68
2018-10-11T10:03:01.939Z,18.86
2018-10-11T10:04:02.096Z,18.87
2018-10-11T10:05:02.243Z,18.98
2018-10-11T10:06:02.407Z,19.01
2018-10-11T10:07:02.552Z,19.18
2018-10-11T10:08:02.707Z,19.23
2018-10-11T10:09:02.865Z,19.33
2018-10-11T10:10:03.115Z,19.50
2018-10-11T10:11:03.171Z,19.55
2018-10-11T10:12:03.328Z,19.66
2018-10-11T10:13:03.487Z,19.70
2018-10-11T10:14:03.642Z,19.70
2018-10-11T10:15:03.797Z,19.68
2018-10-11T10:16:03.954Z,19.79
2018-10-11T10:17:04.107Z,19.83
2018-10-11T10:18:04.258Z,19.80
2018-10-11T10:19:04.418Z,19.83
2018-10-11T10:20:04.577Z,19.95
2018-10-11T10:21:04.790Z,20.02
2018-10-11T10:22:04.889Z,20.13
2018-10-11T10:23:05.041Z,20.23
2018-10-11T10:24:05.200Z,20.30
2018-10-11T10:25:05.353Z,20.35
2018-10-11T10:26:05.512Z,20.50
2018-10-11T10:27:05.757Z,20.38
2018-10-11T10:28:05.832Z,20.25
2018-10-11T10:29:05.986Z,20.23
2018-10-11T10:30:06.131Z,20.13
2018-10-11T10:31:06.305Z,20.25
2018-10-11T10:32:06.474Z,20.18
2018-10-11T10:33:06.629Z,20.24
2018-10-11T10:34:06.852Z,20.34
2018-10-11T10:35:06.935Z,20.46
2018-10-11T10:36:07.090Z,20.42
2018-10-11T10:37:07.261Z,20.49
2018-10-11T10:38:07.421Z,20.69
2018-10-11T10:39:07.560Z,20.71
2018-10-11T10:40:07.776Z,20.69
2018-10-11T10:41:07.872Z,20.77
2018-10-11T10:42:08.026Z,20.77
2018-10-11T10:43:08.182Z,20.81
2018-10-11T10:44:08.341Z,20.74
2018-10-11T10:45:08.499Z,20.87
2018-10-11T10:46:08.653Z,20.76
2018-10-11T10:47:08.810Z,20.83
2018-10-11T10:48:08.968Z,20.84
2018-10-11T10:49:09.126Z,20.96
2018-10-11T10:50:09.281Z,21.01
2018-10-11T10:51:09.439Z,21.05
2018-10-11T10:52:09.593Z,21.23
2018-10-11T10:53:09.755Z,21.39
2018-10-11T10:54:09.949Z,21.46
2018-10-11T10:55:10.065Z,21.50
2018-10-11T10:56:10.222Z,21.53
2018-10-11T10:57:10.383Z,21.64
2018-10-11T10:58:10.541Z,21.67
2018-10-11T10:59:10.697Z,21.67
2018-10-11T11:00:10.853Z,21.67
2018-10-11T11:01:11.010Z,21.72
2018-10-11T11:02:11.166Z,21.66
2018-10-11T11:03:11.326Z,21.59
2018-10-11T11:04:11.487Z,21.56
2018-10-11T11:05:11.645Z,21.69
2018-10-11T11:06:11.807Z,21.67
2018-10-11T11:07:11.992Z,21.67
2018-10-11T11:08:12.119Z,21.35
2018-10-11T11:09:12.276Z,21.32
2018-10-11T11:10:12.436Z,21.36
2018-10-11T11:11:12.597Z,21.35
2018-10-11T11:12:12.752Z,21.59
2018-10-11T11:13:13.013Z,21.41
2018-10-11T11:14:13.068Z,21.41
2018-10-11T11:15:13.225Z,21.35
2018-10-11T11:16:13.382Z,21.27
2018-10-11T11:17:13.536Z,21.21
2018-10-11T11:18:13.696Z,21.57
2018-10-11T11:19:13.855Z,21.66
2018-10-11T11:20:14.012Z,21.78
2018-10-11T11:21:14.166Z,21.75
2018-10-11T11:22:14.322Z,21.88
2018-10-11T11:23:14.480Z,21.85
2018-10-11T11:24:14.644Z,21.83
2018-10-11T11:25:14.928Z,21.76
2018-10-11T11:26:14.955Z,21.90
2018-10-11T11:27:15.115Z,21.97
2018-10-11T11:28:15.280Z,22.01
2018-10-11T11:29:15.429Z,21.90
2018-10-11T11:30:15.587Z,22.06
2018-10-11T11:31:15.745Z,21.92
2018-10-11T11:32:15.903Z,21.90
2018-10-11T11:33:16.064Z,22.01
2018-10-11T11:34:16.218Z,22.02
2018-10-11T11:35:16.376Z,22.10
2018-10-11T11:36:16.536Z,21.99
2018-10-11T11:37:16.694Z,22.06
2018-10-11T11:38:16.854Z,22.10
2018-10-11T11:39:17.010Z,22.16
2018-10-11T11:40:17.165Z,22.23
2018-10-11T11:41:17.322Z,22.19
2018-10-11T11:42:17.480Z,21.94
2018-10-11T11:43:17.639Z,22.01
2018-10-11T11:44:17.797Z,21.95
2018-10-11T11:45:17.957Z,22.04
2018-10-11T11:46:18.114Z,22.20
2018-10-11T11:47:18.271Z,22.10
2018-10-11T11:48:18.440Z,22.20
2018-10-11T11:49:18.590Z,22.22
2018-10-11T11:50:18.757Z,22.16
2018-10-11T11:51:18.904Z,22.32
2018-10-11T11:52:19.063Z,22.41
2018-10-11T11:53:19.220Z,22.46
2018-10-11T11:54:19.378Z,22.28
2018-10-11T11:55:19.542Z,22.23
2018-10-11T11:56:19.700Z,22.37
2018-10-11T11:57:19.858Z,22.49
2018-10-11T11:58:20.017Z,22.44
2018-10-11T11:59:20.175Z,22.43
2018-10-11T12:00:20.333Z,22.44
2018-10-11T12:01:20.494Z,22.62
2018-10-11T12:02:20.652Z,22.62
2018-10-11T12:03:20.811Z,22.54
2018-10-11T12:04:20.967Z,22.59
2018-10-11T12:05:21.130Z,22.72
2018-10-11T12:06:21.288Z,22.71
2018-10-11T12:07:21.445Z,22.87
2018-10-11T12:08:21.606Z,23.17
2018-10-11T12:09:21.764Z,23.24
2018-10-11T12:10:21.928Z,23.27
2018-10-11T12:11:22.088Z,23.55
2018-10-11T12:12:22.239Z,23.68
2018-10-11T12:13:22.397Z,23.71
2018-10-11T12:14:22.555Z,23.77
2018-10-11T12:15:22.714Z,23.85
2018-10-11T12:16:22.871Z,23.70
2018-10-11T12:17:23.033Z,23.50
2018-10-11T12:18:23.193Z,23.65
2018-10-11T12:19:23.350Z,23.77
2018-10-11T12:20:23.511Z,23.94
2018-10-11T12:21:23.670Z,24.07
2018-10-11T12:22:23.828Z,24.14
2018-10-11T12:23:23.987Z,24.14
2018-10-11T12:24:24.149Z,24.05
2018-10-11T12:25:24.310Z,23.90
2018-10-11T12:26:24.530Z,23.80
2018-10-11T12:27:24.627Z,23.68
2018-10-11T12:28:24.882Z,23.65
2018-10-11T12:29:24.949Z,23.80
2018-10-11T12:30:25.109Z,23.86
2018-10-11T12:31:25.270Z,23.89
2018-10-11T12:32:25.426Z,23.72
2018-10-11T12:33:25.589Z,23.80
2018-10-11T12:34:25.749Z,23.83
2018-10-11T12:35:25.909Z,23.98
2018-10-11T12:36:26.072Z,24.10
2018-10-11T12:37:26.228Z,24.02
2018-10-11T12:38:26.389Z,23.90
2018-10-11T12:39:26.549Z,23.85
2018-10-11T12:40:26.703Z,23.62
2018-10-11T12:41:26.863Z,23.71
2018-10-11T12:42:27.051Z,24.00
2018-10-11T12:43:27.178Z,24.10
2018-10-11T12:44:27.337Z,24.12
2018-10-11T12:45:27.499Z,24.26
2018-10-11T12:46:27.655Z,24.68
2018-10-11T12:47:27.815Z,24.69
2018-10-11T12:48:27.979Z,24.90
2018-10-11T12:49:28.267Z,24.94
2018-10-11T12:50:28.297Z,25.05
2018-10-11T12:51:28.456Z,25.17
2018-10-11T12:52:28.615Z,25.06
2018-10-11T12:53:28.775Z,25.31
2018-10-11T12:54:28.934Z,25.44
2018-10-11T12:55:29.094Z,25.53
2018-10-11T12:56:29.333Z,25.57
2018-10-11T12:57:29.439Z,25.69
2018-10-11T12:58:29.564Z,25.90
2018-10-11T12:59:29.734Z,26.20
2018-10-11T13:00:29.889Z,26.47
2018-10-11T13:01:30.048Z,26.94